Time;durP1;ratioP1;P1;durP2;ratioP2;P2;SDS_P1;SDS_P2;PMS_P1;PMS_P2;Temp;Humidity;BMP_temperature;BMP_pressure;BME280_temperature;BME280_humidity;BME280_pressure;Samples;Min_cycle;Max_cycle;Signal;HPM_P1;HPM_P2
2022/04/29 00:01:18;;;;;;;12.90;9.75;;;12.50;98.90;;;;;;4957349;28;20035;-47
2022/04/29 00:03:44;;;;;;;14.20;8.88;;;12.50;99.10;;;;;;4956942;29;20070;-44
2022/04/29 00:06:09;;;;;;;13.38;8.80;;;12.40;99.30;;;;;;4956408;28;20503;-45
2022/04/29 00:08:36;;;;;;;17.08;9.38;;;12.40;99.30;;;;;;4955725;29;20029;-48
2022/04/29 00:11:01;;;;;;;13.50;9.20;;;12.40;99.50;;;;;;4956109;28;20427;-47
2022/04/29 00:13:27;;;;;;;13.27;8.88;;;12.40;99.60;;;;;;4955555;28;20034;-50
2022/04/29 00:15:53;;;;;;;11.18;9.30;;;12.40;99.80;;;;;;4956062;28;20024;-39
2022/04/29 00:18:18;;;;;;;10.52;8.25;;;12.30;99.90;;;;;;4955846;29;20019;-45
2022/04/29 00:20:44;;;;;;;13.35;9.20;;;12.20;99.90;;;;;;4955926;28;20533;-43
2022/04/29 00:23:11;;;;;;;13.55;8.90;;;12.20;99.90;;;;;;4955892;28;20015;-45
2022/04/29 00:25:36;;;;;;;12.73;9.68;;;12.20;99.90;;;;;;4955801;28;20545;-47
2022/04/29 00:28:03;;;;;;;12.63;9.70;;;12.10;99.90;;;;;;4955391;28;20098;-46
2022/04/29 00:30:29;;;;;;;16.02;9.85;;;12.10;99.90;;;;;;4955751;28;20027;-44
2022/04/29 00:32:54;;;;;;;12.18;9.30;;;12.10;99.90;;;;;;4955577;29;20030;-43
2022/04/29 00:35:20;;;;;;;12.77;9.25;;;12.00;99.90;;;;;;4955839;29;20019;-43
2022/04/29 00:37:53;;;;;;;11.15;9.38;;;12.00;99.90;;;;;;4970128;28;20075;-43
2022/04/29 00:40:21;;;;;;;11.88;8.73;;;12.00;99.90;;;;;;4956054;29;20029;-45
2022/04/29 00:42:47;;;;;;;10.20;8.68;;;11.90;99.90;;;;;;4955956;28;20176;-45
2022/04/29 00:45:14;;;;;;;11.25;8.93;;;11.90;99.90;;;;;;4955635;29;20038;-42
2022/04/29 00:47:40;;;;;;;12.93;8.95;;;11.90;99.90;;;;;;4955362;28;20024;-47
2022/04/29 00:50:06;;;;;;;15.93;9.35;;;11.80;99.90;;;;;;4955444;29;20075;-48
2022/04/29 00:52:35;;;;;;;12.40;9.20;;;11.80;99.90;;;;;;4955387;28;20042;-44
2022/04/29 00:55:06;;;;;;;13.32;9.65;;;11.80;99.90;;;;;;4955451;29;20442;-44
2022/04/29 00:57:43;;;;;;;17.58;9.68;;;11.70;99.90;;;;;;4955076;28;20035;-40
2022/04/29 01:00:11;;;;;;;14.82;9.63;;;11.70;99.90;;;;;;4955143;29;20402;-44
2022/04/29 01:02:42;;;;;;;11.52;9.48;;;11.70;99.90;;;;;;4955259;28;20035;-44
2022/04/29 01:05:11;;;;;;;17.30;9.88;;;11.70;99.90;;;;;;4955166;29;20652;-44
2022/04/29 01:07:38;;;;;;;13.95;10.15;;;11.60;99.90;;;;;;4954805;28;20023;-43
2022/04/29 01:10:06;;;;;;;15.95;9.75;;;11.50;99.90;;;;;;4954929;28;20443;-41
2022/04/29 01:12:35;;;;;;;15.40;10.07;;;11.50;99.90;;;;;;4955056;28;20019;-45
2022/04/29 01:15:15;;;;;;;14.23;10.27;;;11.40;99.90;;;;;;4954881;28;20031;-44
2022/04/29 01:17:43;;;;;;;13.90;9.32;;;11.40;99.90;;;;;;4954403;28;20054;-48
2022/04/29 01:20:14;;;;;;;11.70;10.27;;;11.40;99.90;;;;;;4954847;28;20058;-48
2022/04/29 01:22:41;;;;;;;15.85;10.50;;;11.40;99.90;;;;;;4954857;28;20029;-44
2022/04/29 01:25:07;;;;;;;12.57;10.00;;;11.30;99.90;;;;;;4953767;28;20470;-48
2022/04/29 01:27:32;;;;;;;12.02;9.55;;;11.30;99.90;;;;;;4954276;28;20023;-39
2022/04/29 01:30:06;;;;;;;14.25;10.00;;;11.30;99.90;;;;;;4954437;29;20023;-45
2022/04/29 01:32:32;;;;;;;17.17;10.45;;;11.20;99.90;;;;;;4954578;28;20099;-44
2022/04/29 01:34:58;;;;;;;14.07;10.32;;;11.20;99.90;;;;;;4954524;28;20447;-45
2022/04/29 01:37:24;;;;;;;12.07;9.68;;;11.20;99.90;;;;;;4954207;28;20039;-46
2022/04/29 01:39:50;;;;;;;14.52;9.63;;;11.20;99.90;;;;;;4954247;29;20042;-46
2022/04/29 01:42:15;;;;;;;12.38;11.02;;;11.20;99.90;;;;;;4954500;29;20058;-46
2022/04/29 01:44:41;;;;;;;11.38;10.10;;;11.20;99.90;;;;;;4954191;28;20058;-44
2022/04/29 01:47:07;;;;;;;10.82;9.65;;;11.20;99.90;;;;;;4953969;28;20279;-41
2022/04/29 01:49:32;;;;;;;13.50;10.18;;;11.10;99.90;;;;;;4954393;29;20027;-46
2022/04/29 01:51:59;;;;;;;16.17;11.25;;;11.00;99.90;;;;;;4954494;28;20026;-46
2022/04/29 01:54:25;;;;;;;16.65;10.52;;;11.00;99.90;;;;;;4954053;28;20055;-48
2022/04/29 01:56:52;;;;;;;19.00;11.93;;;10.90;99.90;;;;;;4954071;28;20515;-44
2022/04/29 01:59:19;;;;;;;13.43;10.05;;;10.90;99.90;;;;;;4954882;28;20027;-47
2022/04/29 02:01:45;;;;;;;14.52;10.27;;;10.90;99.90;;;;;;4954248;28;20039;-44
2022/04/29 02:04:11;;;;;;;15.80;9.75;;;11.00;99.90;;;;;;4954444;28;20034;-44
2022/04/29 02:06:38;;;;;;;14.05;11.00;;;11.00;99.90;;;;;;4953971;28;20031;-48
2022/04/29 02:09:04;;;;;;;14.45;10.80;;;11.00;99.90;;;;;;4952289;29;20038;-45
2022/04/29 02:11:30;;;;;;;18.00;10.00;;;10.90;99.90;;;;;;4953940;28;20031;-43
2022/04/29 02:13:55;;;;;;;17.30;10.30;;;10.80;99.90;;;;;;4953901;28;20046;-42
2022/04/29 02:16:21;;;;;;;15.05;10.75;;;10.80;99.90;;;;;;4953802;28;20019;-48
2022/04/29 02:18:47;;;;;;;16.02;10.40;;;10.80;99.90;;;;;;4953523;28;20034;-48
2022/04/29 02:21:12;;;;;;;19.85;10.73;;;10.80;99.90;;;;;;4954057;28;20071;-47
2022/04/29 02:23:38;;;;;;;15.60;11.05;;;10.80;99.90;;;;;;4953817;28;20114;-44
2022/04/29 02:26:03;;;;;;;16.15;11.60;;;10.80;99.90;;;;;;4953672;28;20027;-46
2022/04/29 02:28:30;;;;;;;13.98;10.27;;;10.80;99.90;;;;;;4953297;28;20054;-44
2022/04/29 02:30:56;;;;;;;17.08;10.20;;;10.80;99.90;;;;;;4953761;28;20035;-44
2022/04/29 02:33:22;;;;;;;17.23;11.20;;;10.80;99.90;;;;;;4953869;28;20136;-51
2022/04/29 02:35:47;;;;;;;12.50;11.15;;;10.80;99.90;;;;;;4953620;28;20103;-48
2022/04/29 02:38:13;;;;;;;17.55;10.60;;;10.70;99.90;;;;;;4953650;28;20081;-48
2022/04/29 02:40:39;;;;;;;16.58;10.30;;;10.70;99.90;;;;;;4953740;28;20054;-41
2022/04/29 02:43:04;;;;;;;19.98;10.70;;;10.70;99.90;;;;;;4953534;28;20106;-48
2022/04/29 02:45:30;;;;;;;15.50;10.60;;;10.70;99.90;;;;;;4953704;28;20054;-46
2022/04/29 02:47:55;;;;;;;21.80;11.05;;;10.70;99.90;;;;;;4953329;28;20418;-43
2022/04/29 02:50:21;;;;;;;15.80;11.02;;;10.60;99.90;;;;;;4953660;28;20619;-44
2022/04/29 02:52:46;;;;;;;16.83;10.32;;;10.70;99.90;;;;;;4953623;28;20023;-48
2022/04/29 02:55:12;;;;;;;12.73;9.75;;;10.70;99.90;;;;;;4953479;28;20031;-45
2022/04/29 02:57:37;;;;;;;15.57;10.75;;;10.70;99.90;;;;;;4953138;28;20058;-47
2022/04/29 03:00:04;;;;;;;15.82;10.77;;;10.60;99.90;;;;;;4953345;28;20446;-40
2022/04/29 03:02:29;;;;;;;17.70;10.73;;;10.60;99.90;;;;;;4953384;28;20447;-46
2022/04/29 03:04:55;;;;;;;14.98;11.40;;;10.60;99.90;;;;;;4951929;29;20023;-41
2022/04/29 03:07:20;;;;;;;13.80;10.40;;;10.50;99.90;;;;;;4952994;28;20035;-46
2022/04/29 03:09:48;;;;;;;18.45;11.15;;;10.50;99.90;;;;;;4953426;28;20019;-47
2022/04/29 03:12:14;;;;;;;18.75;11.85;;;10.50;99.90;;;;;;4953263;28;20023;-49
2022/04/29 03:14:40;;;;;;;15.25;10.63;;;10.40;99.90;;;;;;4953255;28;20023;-42
2022/04/29 03:17:06;;;;;;;16.75;12.57;;;10.30;99.90;;;;;;4953009;28;20123;-41
2022/04/29 03:19:31;;;;;;;21.33;11.10;;;10.30;99.90;;;;;;4953266;28;20059;-48
2022/04/29 03:21:57;;;;;;;18.58;11.52;;;10.30;99.90;;;;;;4952219;29;20027;-43
2022/04/29 03:24:23;;;;;;;15.18;11.05;;;10.30;99.90;;;;;;4953192;28;20038;-47
2022/04/29 03:26:48;;;;;;;14.43;10.80;;;10.30;99.90;;;;;;4952812;28;20110;-46
2022/04/29 03:29:14;;;;;;;17.92;11.07;;;10.20;99.90;;;;;;4952986;28;20038;-43
2022/04/29 03:31:40;;;;;;;17.92;11.68;;;10.30;99.90;;;;;;4953169;28;20028;-48
2022/04/29 03:34:05;;;;;;;19.30;11.60;;;10.30;99.90;;;;;;4953196;28;20038;-45
2022/04/29 03:36:31;;;;;;;19.50;11.20;;;10.20;99.90;;;;;;4952949;28;20043;-44
2022/04/29 03:38:57;;;;;;;19.13;10.63;;;10.20;99.90;;;;;;4952863;28;20075;-42
2022/04/29 03:41:22;;;;;;;17.30;10.82;;;10.30;99.90;;;;;;4953166;28;20039;-45
2022/04/29 03:43:49;;;;;;;14.43;11.50;;;10.30;99.90;;;;;;4953030;28;20090;-47
2022/04/29 03:46:15;;;;;;;18.20;11.20;;;10.20;99.90;;;;;;4953054;28;20106;-43
2022/04/29 03:51:25;;;;;;;18.70;11.32;;;10.20;99.90;;;;;;4956707;29;20062;-45
2022/04/29 03:53:50;;;;;;;21.15;11.98;;;10.20;99.90;;;;;;4956595;28;20106;-46
2022/04/29 03:56:17;;;;;;;18.83;11.73;;;10.20;99.90;;;;;;4956503;28;20062;-48
2022/04/29 03:58:43;;;;;;;15.13;11.70;;;10.20;99.90;;;;;;4955776;28;20448;-41
2022/04/29 04:01:10;;;;;;;19.13;10.82;;;10.10;99.90;;;;;;4956379;28;20043;-49
2022/04/29 04:03:35;;;;;;;18.13;11.82;;;10.10;99.90;;;;;;4956342;28;20040;-49
2022/04/29 04:08:46;;;;;;;19.17;12.32;;;10.10;99.90;;;;;;4956047;29;20034;-45
2022/04/29 04:11:11;;;;;;;25.15;12.77;;;10.10;99.90;;;;;;4956128;28;20023;-42
2022/04/29 04:13:37;;;;;;;17.02;12.10;;;10.00;99.90;;;;;;4956214;28;20376;-46
2022/04/29 04:16:03;;;;;;;23.35;12.20;;;10.00;99.90;;;;;;4956088;28;20551;-47
2022/04/29 04:18:28;;;;;;;24.90;11.48;;;10.00;99.90;;;;;;4955846;28;20399;-47
2022/04/29 04:20:54;;;;;;;19.05;11.23;;;10.00;99.90;;;;;;4955992;28;20098;-40
2022/04/29 04:23:19;;;;;;;15.93;11.35;;;10.00;99.90;;;;;;4956220;28;20042;-44
2022/04/29 04:25:45;;;;;;;20.88;12.85;;;10.00;99.90;;;;;;4956684;28;20031;-45
2022/04/29 04:28:13;;;;;;;19.30;12.00;;;10.00;99.90;;;;;;4956624;28;20031;-44
2022/04/29 04:30:39;;;;;;;13.15;11.02;;;10.00;99.90;;;;;;4957125;28;20117;-44
2022/04/29 04:33:04;;;;;;;22.02;11.13;;;10.00;99.90;;;;;;4955905;28;20106;-45
2022/04/29 04:35:30;;;;;;;16.70;12.13;;;10.10;99.90;;;;;;4955846;28;20110;-45
2022/04/29 04:37:55;;;;;;;19.60;12.07;;;10.10;99.90;;;;;;4956740;28;20471;-45
2022/04/29 04:40:21;;;;;;;23.95;12.75;;;10.10;99.90;;;;;;4956553;28;20030;-46
2022/04/29 04:42:47;;;;;;;18.77;11.38;;;10.10;99.90;;;;;;4955813;28;20031;-44
2022/04/29 04:45:12;;;;;;;19.23;12.35;;;10.10;99.90;;;;;;4955886;28;20029;-40
2022/04/29 04:47:38;;;;;;;17.35;12.10;;;10.10;99.90;;;;;;4955273;28;20480;-46
2022/04/29 04:50:04;;;;;;;22.42;11.57;;;10.20;99.90;;;;;;4955426;28;20026;-47
2022/04/29 04:52:30;;;;;;;23.20;12.13;;;10.30;99.90;;;;;;4955708;28;20027;-49
2022/04/29 04:54:55;;;;;;;17.88;12.30;;;10.30;99.90;;;;;;4954796;29;20046;-44
2022/04/29 04:57:21;;;;;;;20.05;11.90;;;10.50;99.90;;;;;;4955404;28;20458;-44
2022/04/29 04:59:46;;;;;;;17.58;12.73;;;10.60;99.90;;;;;;4954361;28;20407;-42
2022/04/29 05:02:12;;;;;;;20.48;12.35;;;10.70;99.90;;;;;;4955433;28;20407;-44
2022/04/29 05:04:37;;;;;;;19.08;13.15;;;10.70;99.90;;;;;;4955301;28;20027;-44
2022/04/29 05:07:03;;;;;;;29.13;13.82;;;10.80;99.90;;;;;;4954941;28;20095;-47
2022/04/29 05:09:29;;;;;;;16.38;12.05;;;11.00;99.90;;;;;;4955168;28;20436;-45
2022/04/29 05:11:54;;;;;;;17.85;12.50;;;11.00;99.90;;;;;;4955149;28;20062;-48
2022/04/29 05:14:20;;;;;;;18.45;11.98;;;11.00;99.90;;;;;;4955135;28;20035;-48
2022/04/29 05:16:46;;;;;;;26.58;12.68;;;10.90;99.90;;;;;;4955352;28;20031;-41
2022/04/29 05:19:11;;;;;;;18.63;13.45;;;11.00;99.90;;;;;;4954869;28;20035;-49
2022/04/29 05:21:37;;;;;;;23.67;11.68;;;11.00;99.90;;;;;;4954867;28;20479;-47
2022/04/29 05:24:02;;;;;;;21.35;12.13;;;11.00;99.90;;;;;;4954616;29;20067;-42
2022/04/29 05:26:28;;;;;;;18.10;12.40;;;11.00;99.90;;;;;;4954735;28;20032;-47
2022/04/29 05:28:53;;;;;;;16.35;11.57;;;11.10;99.90;;;;;;4953330;29;20197;-50
2022/04/29 05:31:19;;;;;;;19.65;11.88;;;11.10;99.90;;;;;;4954747;28;20361;-44
2022/04/29 05:33:45;;;;;;;18.50;11.10;;;11.20;99.90;;;;;;4954851;28;20020;-45
2022/04/29 05:36:12;;;;;;;21.77;11.65;;;11.30;99.90;;;;;;4954520;28;20062;-45
2022/04/29 05:44:07;;;;;;;17.27;12.25;;;11.40;99.90;;;;;;4973831;28;20458;-44
2022/04/29 05:46:35;;;;;;;26.45;13.73;;;11.40;99.90;;;;;;4973684;28;20027;-45
2022/04/29 05:49:01;;;;;;;17.50;11.93;;;11.30;99.90;;;;;;4973292;28;20046;-44
2022/04/29 05:51:26;;;;;;;17.67;11.82;;;11.30;99.90;;;;;;4973595;28;20047;-42
2022/04/29 05:53:52;;;;;;;18.73;12.30;;;11.30;99.90;;;;;;4973563;28;20131;-42
2022/04/29 05:56:17;;;;;;;21.13;11.73;;;11.30;99.90;;;;;;4973515;28;20065;-41
2022/04/29 05:58:43;;;;;;;16.92;11.30;;;11.30;99.90;;;;;;4973102;28;20038;-42
2022/04/29 06:01:08;;;;;;;19.15;11.82;;;11.30;99.90;;;;;;4974010;28;20023;-42
2022/04/29 06:03:34;;;;;;;22.25;12.23;;;11.40;99.90;;;;;;4973652;28;20026;-42
2022/04/29 06:05:59;;;;;;;23.30;12.75;;;11.50;99.90;;;;;;4973964;28;20034;-44
2022/04/29 06:08:25;;;;;;;15.98;11.85;;;11.60;99.90;;;;;;4973874;28;20070;-42
2022/04/29 06:10:50;;;;;;;15.23;11.35;;;11.50;99.90;;;;;;4973863;28;20399;-46
2022/04/29 06:13:16;;;;;;;18.33;12.00;;;11.50;99.90;;;;;;4972984;28;20054;-43
2022/04/29 06:15:41;;;;;;;18.65;11.38;;;11.60;99.90;;;;;;4976460;28;20454;-42
2022/04/29 06:18:07;;;;;;;19.00;11.20;;;11.60;99.90;;;;;;4973124;28;20070;-41
2022/04/29 06:20:32;;;;;;;16.25;12.00;;;11.70;99.90;;;;;;4973424;28;20026;-44
2022/04/29 06:22:58;;;;;;;21.73;11.00;;;11.70;99.90;;;;;;4973689;28;20050;-43
2022/04/29 06:25:24;;;;;;;19.08;11.45;;;11.70;99.90;;;;;;4973673;28;20065;-43
2022/04/29 06:27:50;;;;;;;16.77;12.50;;;11.70;99.90;;;;;;4973271;28;20027;-43
2022/04/29 06:30:16;;;;;;;18.65;11.95;;;11.80;99.90;;;;;;4974059;28;20057;-44
2022/04/29 06:32:41;;;;;;;22.52;10.93;;;11.90;99.90;;;;;;4974504;28;20015;-48
2022/04/29 06:35:07;;;;;;;22.02;11.10;;;11.80;99.90;;;;;;4975985;28;20023;-49
2022/04/29 06:37:34;;;;;;;15.63;11.27;;;11.80;99.90;;;;;;4974602;28;20573;-49
2022/04/29 06:40:00;;;;;;;15.38;11.77;;;11.80;99.90;;;;;;4976448;28;20410;-44
2022/04/29 06:42:25;;;;;;;15.80;11.48;;;11.80;99.90;;;;;;4975870;28;20023;-50
2022/04/29 06:44:51;;;;;;;19.83;11.13;;;11.80;99.90;;;;;;4961371;28;20030;-46
2022/04/29 06:47:17;;;;;;;14.18;11.38;;;11.90;99.90;;;;;;4974578;28;20030;-44
2022/04/29 06:49:43;;;;;;;18.83;10.75;;;11.90;99.90;;;;;;4973243;28;20049;-44
2022/04/29 06:52:08;;;;;;;16.48;10.32;;;12.00;99.90;;;;;;4972282;28;20027;-44
2022/04/29 06:54:34;;;;;;;20.77;11.05;;;12.00;99.90;;;;;;4972496;28;20577;-44
2022/04/29 06:57:00;;;;;;;16.60;11.20;;;12.10;99.90;;;;;;4971582;28;20026;-44
2022/04/29 06:59:26;;;;;;;16.17;10.63;;;12.20;99.90;;;;;;4972416;28;20035;-48
2022/04/29 07:01:52;;;;;;;18.17;11.00;;;12.30;99.90;;;;;;4972622;28;20454;-44
2022/04/29 07:04:17;;;;;;;13.95;9.52;;;12.30;99.90;;;;;;4957506;28;20065;-44
2022/04/29 07:06:43;;;;;;;14.93;10.13;;;12.40;99.90;;;;;;4970090;28;20074;-46
2022/04/29 07:09:09;;;;;;;21.40;10.35;;;12.50;99.90;;;;;;4972005;28;20042;-45
2022/04/29 07:11:34;;;;;;;14.98;10.60;;;12.80;99.90;;;;;;4972177;28;20462;-46
2022/04/29 07:14:00;;;;;;;23.83;12.45;;;12.70;99.90;;;;;;4972123;28;20031;-42
2022/04/29 07:16:25;;;;;;;16.85;10.43;;;12.70;99.90;;;;;;4972796;28;20395;-45
2022/04/29 07:18:51;;;;;;;15.95;10.10;;;12.80;99.90;;;;;;4972314;28;20116;-42
2022/04/29 07:21:17;;;;;;;13.57;10.57;;;12.80;99.90;;;;;;4972558;28;20401;-49
2022/04/29 07:23:43;;;;;;;23.80;10.82;;;12.80;99.90;;;;;;4975235;28;20085;-43
2022/04/29 07:26:08;;;;;;;17.80;11.30;;;12.80;99.90;;;;;;4976478;28;20030;-43
2022/04/29 07:28:34;;;;;;;16.10;10.00;;;12.80;99.90;;;;;;4976078;28;20031;-44
2022/04/29 07:31:00;;;;;;;18.17;10.65;;;12.80;99.90;;;;;;4976484;28;20422;-46
2022/04/29 07:33:26;;;;;;;15.52;10.45;;;12.80;99.90;;;;;;4976401;28;20050;-45
2022/04/29 07:44:04;;;;;;;11.70;9.43;;;12.80;99.90;;;;;;4975983;28;20127;-42
2022/04/29 07:46:29;;;;;;;15.82;10.02;;;12.80;99.90;;;;;;4976176;28;20105;-44
2022/04/29 07:48:55;;;;;;;17.50;11.70;;;12.90;99.90;;;;;;4975751;28;20042;-44
2022/04/29 07:51:20;;;;;;;15.07;11.68;;;13.10;99.90;;;;;;4975530;28;20030;-42
2022/04/29 07:53:46;;;;;;;20.92;10.30;;;13.20;99.90;;;;;;4991034;28;20054;-46
2022/04/29 07:56:12;;;;;;;12.60;9.40;;;13.30;99.90;;;;;;4975478;28;20044;-43
2022/04/29 07:58:38;;;;;;;12.52;9.55;;;13.60;99.90;;;;;;4974691;28;20052;-42
2022/04/29 08:01:06;;;;;;;11.68;8.27;;;13.80;99.90;;;;;;4975449;28;20085;-42
2022/04/29 08:03:31;;;;;;;13.85;9.70;;;14.00;99.90;;;;;;4975729;28;20015;-42
2022/04/29 08:05:58;;;;;;;13.88;9.73;;;14.30;99.90;;;;;;4975779;28;20023;-45
2022/04/29 08:08:24;;;;;;;83.95;44.90;;;14.40;99.90;;;;;;4975369;28;20018;-45
2022/04/29 08:10:50;;;;;;;53.40;32.83;;;14.40;99.90;;;;;;4975996;28;20037;-44
2022/04/29 08:13:16;;;;;;;17.40;9.68;;;14.40;99.90;;;;;;4975507;28;20027;-43
2022/04/29 08:15:44;;;;;;;20.05;10.18;;;14.30;99.90;;;;;;4975034;28;20026;-41
2022/04/29 08:18:09;;;;;;;17.58;9.45;;;14.40;99.90;;;;;;4974534;28;20467;-42
2022/04/29 08:20:35;;;;;;;13.20;9.63;;;14.20;99.90;;;;;;4973947;28;20054;-43
2022/04/29 08:23:00;;;;;;;15.45;9.07;;;14.30;99.90;;;;;;4975629;28;20031;-45
2022/04/29 08:25:26;;;;;;;18.08;9.65;;;14.50;99.90;;;;;;4975384;28;20027;-43
2022/04/29 08:27:52;;;;;;;9.60;8.52;;;14.60;99.90;;;;;;4974227;28;20019;-45
2022/04/29 08:30:17;;;;;;;11.25;8.00;;;14.70;99.90;;;;;;4973695;28;20027;-46
2022/04/29 08:32:45;;;;;;;15.35;8.52;;;15.00;99.90;;;;;;4968415;28;20023;-49
2022/04/29 08:35:11;;;;;;;12.35;7.63;;;15.40;99.30;;;;;;4974124;28;20062;-43
2022/04/29 08:37:38;;;;;;;13.38;8.55;;;16.00;98.40;;;;;;4973537;28;20035;-44
2022/04/29 08:40:08;;;;;;;9.35;7.63;;;16.20;97.70;;;;;;4974994;28;20380;-44
2022/04/29 08:42:38;;;;;;;12.55;8.05;;;16.40;97.90;;;;;;4974683;28;20031;-44
2022/04/29 08:45:08;;;;;;;12.30;7.68;;;16.70;97.30;;;;;;4974982;28;20030;-44
2022/04/29 08:47:36;;;;;;;16.10;8.50;;;17.20;97.30;;;;;;4974384;28;20415;-46
2022/04/29 08:50:05;;;;;;;8.93;7.47;;;17.70;96.00;;;;;;4974943;28;20023;-42
2022/04/29 08:52:30;;;;;;;15.75;7.43;;;17.80;95.40;;;;;;4974550;28;20030;-43
2022/04/29 09:00:26;;;;;;;6.88;6.18;;;17.50;94.90;;;;;;4974905;28;20093;-46
2022/04/29 09:02:52;;;;;;;9.93;7.85;;;17.50;94.80;;;;;;4974910;28;20051;-45
2022/04/29 09:05:17;;;;;;;15.13;7.05;;;17.30;95.00;;;;;;4974694;28;20522;-47
2022/04/29 09:08:02;;;;;;;11.45;6.78;;;17.30;95.30;;;;;;4974041;28;20081;-44
2022/04/29 09:10:34;;;;;;;9.65;7.22;;;17.30;95.60;;;;;;4974049;28;20491;-47
2022/04/29 09:13:34;;;;;;;14.90;7.13;;;17.40;95.10;;;;;;4974841;28;20058;-49
2022/04/29 09:16:10;;;;;;;12.70;7.07;;;17.50;94.80;;;;;;4947163;28;20036;-42
2022/04/29 09:18:47;;;;;;;14.88;6.68;;;17.60;95.10;;;;;;4954983;29;20070;-44
2022/04/29 09:21:26;;;;;;;8.98;6.57;;;18.10;95.00;;;;;;4955363;29;20031;-42
2022/04/29 09:23:56;;;;;;;7.20;5.50;;;18.60;93.10;;;;;;4972265;28;20112;-43
2022/04/29 09:26:36;;;;;;;10.10;7.18;;;18.90;92.90;;;;;;4974449;28;20041;-45
2022/04/29 09:29:21;;;;;;;10.13;6.40;;;19.30;92.60;;;;;;4973969;28;20027;-44
2022/04/29 09:31:54;;;;;;;8.30;5.63;;;19.40;92.10;;;;;;4973969;28;20153;-45
2022/04/29 09:34:21;;;;;;;9.50;5.95;;;19.40;91.70;;;;;;4974358;28;20057;-45
2022/04/29 09:36:47;;;;;;;11.32;6.53;;;19.20;91.90;;;;;;4972262;28;20231;-45
2022/04/29 09:39:30;;;;;;;9.80;5.68;;;19.50;92.60;;;;;;4972827;28;20023;-44
2022/04/29 09:42:04;;;;;;;6.50;5.60;;;20.00;91.70;;;;;;4972019;28;20062;-46
2022/04/29 09:44:31;;;;;;;6.57;5.28;;;20.10;91.70;;;;;;4973292;28;20398;-44
2022/04/29 09:47:16;;;;;;;12.52;7.78;;;20.30;90.70;;;;;;4953877;28;20019;-45
2022/04/29 09:49:55;;;;;;;8.50;5.30;;;20.30;90.80;;;;;;4963004;28;20218;-45
2022/04/29 09:52:30;;;;;;;5.18;4.38;;;20.20;90.60;;;;;;4973910;28;20399;-42
2022/04/29 09:55:27;;;;;;;6.60;4.53;;;20.20;89.10;;;;;;4973188;28;20050;-46
2022/04/29 09:58:01;;;;;;;6.20;4.60;;;20.20;89.50;;;;;;4965625;28;20031;-43
2022/04/29 10:00:27;;;;;;;6.18;4.95;;;20.30;89.80;;;;;;4954646;28;20035;-44
2022/04/29 10:02:53;;;;;;;5.88;4.28;;;20.40;89.60;;;;;;4968875;28;20026;-46
2022/04/29 10:05:18;;;;;;;7.55;4.68;;;20.50;89.20;;;;;;4971284;28;20379;-49
2022/04/29 10:07:44;;;;;;;8.10;4.28;;;20.50;90.70;;;;;;4972198;28;20573;-45
2022/04/29 10:10:10;;;;;;;5.38;3.97;;;20.60;89.60;;;;;;4972424;28;20026;-45
2022/04/29 10:12:37;;;;;;;9.30;4.50;;;20.60;88.30;;;;;;4969726;28;20426;-43
2022/04/29 10:15:06;;;;;;;8.95;4.05;;;20.60;85.40;;;;;;4984727;28;20022;-42
2022/04/29 10:23:05;;;;;;;9.80;3.80;;;19.90;83.00;;;;;;4972863;28;20077;-43
2022/04/29 10:25:31;;;;;;;4.25;3.55;;;19.90;81.80;;;;;;4971528;28;20399;-42
2022/04/29 10:27:57;;;;;;;5.82;4.00;;;19.90;80.40;;;;;;4973053;28;20033;-41
2022/04/29 10:30:32;;;;;;;5.85;3.67;;;19.80;81.00;;;;;;4973158;28;20471;-42
2022/04/29 10:33:05;;;;;;;4.67;3.23;;;19.90;80.80;;;;;;4973345;28;20019;-43
2022/04/29 10:35:39;;;;;;;3.78;3.25;;;19.90;81.10;;;;;;4973007;28;20030;-43
2022/04/29 10:38:23;;;;;;;6.80;3.30;;;20.00;80.60;;;;;;4972623;28;20113;-43
2022/04/29 10:41:11;;;;;;;10.55;4.07;;;19.90;79.60;;;;;;4973151;28;20031;-44
2022/04/29 10:43:38;;;;;;;5.72;3.45;;;19.90;79.40;;;;;;4972936;28;20047;-45
2022/04/29 10:46:03;;;;;;;7.03;5.68;;;20.00;79.00;;;;;;4973057;28;20081;-47
2022/04/29 10:48:34;;;;;;;4.85;3.80;;;20.10;80.10;;;;;;4972898;28;20495;-42
2022/04/29 10:51:19;;;;;;;5.18;3.53;;;20.30;80.00;;;;;;4973533;28;20050;-41
2022/04/29 10:53:47;;;;;;;9.20;3.70;;;20.60;80.20;;;;;;4973653;28;20206;-41
2022/04/29 10:56:31;;;;;;;42.95;31.08;;;20.70;79.40;;;;;;4973934;28;20023;-45
2022/04/29 10:59:20;;;;;;;112.47;84.28;;;20.80;76.00;;;;;;4991383;28;20508;-45
2022/04/29 11:02:03;;;;;;;5.28;4.68;;;20.90;75.80;;;;;;4976747;28;20019;-43
2022/04/29 11:04:31;;;;;;;4.03;3.13;;;20.90;75.00;;;;;;4976425;28;20110;-43
2022/04/29 11:06:57;;;;;;;5.68;3.60;;;20.90;69.80;;;;;;4976285;28;20018;-42
2022/04/29 11:09:44;;;;;;;3.17;2.85;;;20.80;69.50;;;;;;4976745;28;20102;-41
2022/04/29 11:12:35;;;;;;;5.07;3.38;;;20.60;68.30;;;;;;4976507;28;20431;-45
2022/04/29 11:15:15;;;;;;;4.45;3.50;;;20.40;66.30;;;;;;4976670;28;20030;-42
2022/04/29 11:17:42;;;;;;;5.00;3.72;;;20.40;65.70;;;;;;4976226;28;20022;-45
2022/04/29 11:20:17;;;;;;;5.88;3.05;;;20.20;67.80;;;;;;4976503;28;20052;-42
2022/04/29 11:25:59;;;;;;;2.85;2.30;;;19.90;66.40;;;;;;4976592;28;20084;-44
2022/04/29 11:28:26;;;;;;;4.53;2.80;;;19.80;64.80;;;;;;4976122;28;20027;-42
2022/04/29 11:31:00;;;;;;;4.20;3.58;;;19.80;64.80;;;;;;4976488;28;20437;-42
2022/04/29 11:33:27;;;;;;;6.10;3.00;;;20.00;65.50;;;;;;4976446;28;20015;-41
2022/04/29 11:36:00;;;;;;;2.85;2.65;;;19.90;64.50;;;;;;4976422;28;20022;-41
2022/04/29 11:38:28;;;;;;;4.05;2.90;;;20.00;64.20;;;;;;4976894;28;20054;-46
2022/04/29 11:40:53;;;;;;;3.85;2.92;;;19.90;63.80;;;;;;4976108;28;20033;-43
2022/04/29 11:43:22;;;;;;;4.80;2.92;;;20.00;64.00;;;;;;4975992;28;20491;-43
2022/04/29 11:45:59;;;;;;;4.38;2.70;;;19.80;63.80;;;;;;4976558;28;20031;-42
2022/04/29 11:48:24;;;;;;;5.55;2.83;;;19.80;64.70;;;;;;4975579;28;20479;-43
2022/04/29 11:50:50;;;;;;;136.80;94.40;;;19.80;64.40;;;;;;4976173;28;20117;-47
2022/04/29 11:53:15;;;;;;;75.43;56.08;;;19.90;65.20;;;;;;4976027;28;20027;-45
2022/04/29 11:55:41;;;;;;;9.38;6.55;;;20.00;64.50;;;;;;4975954;28;20058;-45
2022/04/29 11:58:07;;;;;;;4.90;2.90;;;20.10;64.10;;;;;;4975501;28;20031;-42
2022/04/29 12:00:34;;;;;;;8.98;3.28;;;20.10;65.40;;;;;;4975671;28;20487;-44
2022/04/29 12:03:04;;;;;;;3.83;3.42;;;20.20;65.30;;;;;;4975828;28;20035;-45
2022/04/29 12:05:30;;;;;;;5.45;2.83;;;20.20;64.10;;;;;;4975604;28;20106;-42
2022/04/29 12:08:03;;;;;;;3.13;2.72;;;20.20;64.20;;;;;;4975298;28;20027;-46
2022/04/29 12:10:31;;;;;;;7.43;3.08;;;20.00;64.00;;;;;;4974462;28;20029;-45
2022/04/29 12:12:58;;;;;;;4.60;3.17;;;20.00;65.00;;;;;;4975547;28;20081;-45
2022/04/29 12:15:35;;;;;;;2.95;2.60;;;20.10;66.20;;;;;;4975331;28;20055;-42
2022/04/29 12:18:08;;;;;;;5.07;2.75;;;20.30;66.60;;;;;;4975019;28;20483;-44
2022/04/29 12:20:34;;;;;;;3.22;2.80;;;20.50;66.20;;;;;;4975522;28;20054;-42
2022/04/29 12:23:11;;;;;;;4.50;2.70;;;20.50;66.10;;;;;;4975426;28;20065;-43
2022/04/29 12:25:41;;;;;;;4.15;3.50;;;20.40;64.30;;;;;;4975104;28;20028;-41
2022/04/29 12:28:07;;;;;;;4.43;3.08;;;20.40;65.30;;;;;;4974704;28;20042;-43
2022/04/29 12:36:06;;;;;;;;;;;20.00;66.40;;;;;;4975524;28;20450;-42
2022/04/29 12:38:36;;;;;;;4.45;3.53;;;20.00;64.90;;;;;;4974264;28;19914;-42
2022/04/29 12:41:24;;;;;;;4.20;2.40;;;19.90;65.60;;;;;;4975051;28;20023;-44
2022/04/29 12:43:51;;;;;;;4.93;2.30;;;20.00;66.60;;;;;;4974758;28;20394;-48
2022/04/29 12:46:18;;;;;;;9.13;2.88;;;20.10;67.90;;;;;;4974833;28;20547;-42
2022/04/29 12:48:49;;;;;;;6.88;2.70;;;20.20;63.50;;;;;;4974447;28;20107;-44
2022/04/29 12:51:25;;;;;;;7.30;3.08;;;20.20;64.10;;;;;;4974602;28;20027;-42
2022/04/29 12:53:51;;;;;;;2.42;2.20;;;20.10;63.90;;;;;;4974725;28;20026;-47
2022/04/29 12:56:24;;;;;;;2.60;2.40;;;20.10;64.40;;;;;;4974819;28;20129;-44
2022/04/29 12:58:50;;;;;;;4.35;2.58;;;20.20;64.80;;;;;;4974087;28;20033;-43
2022/04/29 13:01:15;;;;;;;4.07;2.10;;;20.20;65.90;;;;;;4989470;28;20023;-41
2022/04/29 13:03:54;;;;;;;2.90;2.70;;;20.30;66.70;;;;;;4974611;28;20100;-43
2022/04/29 13:06:23;;;;;;;5.15;3.00;;;20.30;64.90;;;;;;4974636;28;20027;-44
2022/04/29 13:08:53;;;;;;;3.25;2.28;;;20.30;65.00;;;;;;4974175;28;20506;-44
2022/04/29 13:11:19;;;;;;;5.05;2.80;;;20.20;62.90;;;;;;4974224;28;20027;-43
2022/04/29 13:13:45;;;;;;;3.30;3.00;;;20.20;62.70;;;;;;4973073;28;20492;-43
2022/04/29 13:16:10;;;;;;;3.50;2.40;;;20.10;63.30;;;;;;4974311;28;20498;-42
2022/04/29 13:18:36;;;;;;;3.58;2.78;;;20.10;63.20;;;;;;4974074;28;20030;-45